Time;durP1;ratioP1;P1;durP2;ratioP2;P2;SDS_P1;SDS_P2;PMS_P1;PMS_P2;Temp;Humidity;BMP_temperature;BMP_pressure;BME280_temperature;BME280_humidity;BME280_pressure;Samples;Min_cycle;Max_cycle;Signal;HPM_P1;HPM_P2
2023/03/05 00:01:33;;;;;;;8.53;3.17;;;;;;;;;;5065426;28;20783;-52
2023/03/05 00:04:00;;;;;;;12.50;4.37;;;;;;;;;;5066368;28;20249;-51
2023/03/05 00:06:28;;;;;;;12.10;3.23;;;;;;;;;;5066738;28;20264;-51
2023/03/05 00:08:55;;;;;;;10.23;3.23;;;;;;;;;;5067243;28;20317;-50
2023/03/05 00:11:23;;;;;;;11.20;4.23;;;;;;;;;;5067560;28;20242;-52
2023/03/05 00:13:51;;;;;;;6.90;2.60;;;;;;;;;;5067685;28;20234;-52
2023/03/05 00:16:19;;;;;;;11.00;3.47;;;;;;;;;;5066907;28;20234;-52
2023/03/05 00:18:46;;;;;;;11.43;3.00;;;;;;;;;;5066840;28;20246;-52
2023/03/05 00:21:18;;;;;;;17.23;4.10;;;;;;;;;;5066266;28;20246;-52
2023/03/05 00:23:45;;;;;;;10.57;2.60;;;;;;;;;;5067023;28;20256;-52
2023/03/05 00:26:11;;;;;;;9.60;3.13;;;;;;;;;;5066762;28;20285;-52
2023/03/05 00:28:38;;;;;;;8.60;3.50;;;;;;;;;;5066772;28;20249;-52
2023/03/05 00:31:06;;;;;;;13.70;3.73;;;;;;;;;;5066449;28;20259;-52
2023/03/05 00:33:34;;;;;;;13.77;3.70;;;;;;;;;;5067361;28;20523;-52
2023/03/05 00:36:05;;;;;;;9.30;3.50;;;;;;;;;;5066586;28;20330;-52
2023/03/05 00:38:32;;;;;;;12.60;3.77;;;;;;;;;;5065227;28;20242;-52
2023/03/05 00:40:58;;;;;;;8.93;2.93;;;;;;;;;;5065340;28;20242;-52
2023/03/05 00:43:25;;;;;;;12.30;4.40;;;;;;;;;;5066676;28;20242;-51
2023/03/05 00:45:51;;;;;;;14.67;3.77;;;;;;;;;;5065286;28;20243;-51
2023/03/05 00:48:18;;;;;;;13.07;3.77;;;;;;;;;;5065351;28;20238;-53
2023/03/05 00:50:46;;;;;;;10.90;3.03;;;;;;;;;;5065685;28;20333;-52
2023/03/05 00:53:13;;;;;;;7.50;2.93;;;;;;;;;;5064276;28;20262;-52
2023/03/05 00:55:39;;;;;;;5.10;2.80;;;;;;;;;;5064892;28;20930;-52
2023/03/05 00:58:06;;;;;;;11.10;2.53;;;;;;;;;;5064395;28;20234;-52
2023/03/05 01:00:33;;;;;;;4.43;2.03;;;;;;;;;;5064328;28;20801;-52
2023/03/05 01:02:59;;;;;;;8.17;2.93;;;;;;;;;;5065670;28;20335;-52
2023/03/05 01:05:26;;;;;;;4.20;2.00;;;;;;;;;;5066287;28;20238;-51
2023/03/05 01:07:54;;;;;;;9.53;2.70;;;;;;;;;;5064975;28;20313;-51
2023/03/05 01:10:22;;;;;;;8.73;1.93;;;;;;;;;;5064529;28;20235;-52
2023/03/05 01:12:49;;;;;;;4.03;2.33;;;;;;;;;;5066137;28;20836;-51
2023/03/05 01:15:15;;;;;;;11.17;3.07;;;;;;;;;;5065797;28;20241;-51
2023/03/05 01:17:42;;;;;;;6.50;2.70;;;;;;;;;;5065126;28;20731;-51
2023/03/05 01:20:09;;;;;;;7.27;2.27;;;;;;;;;;5065857;28;20235;-52
2023/03/05 01:22:36;;;;;;;10.47;2.57;;;;;;;;;;5066098;28;20698;-52
2023/03/05 01:25:04;;;;;;;9.03;1.87;;;;;;;;;;5065842;28;20245;-53
2023/03/05 01:27:30;;;;;;;4.43;2.93;;;;;;;;;;5064908;28;20266;-52
2023/03/05 01:29:57;;;;;;;7.70;2.50;;;;;;;;;;5065603;28;20672;-53
2023/03/05 01:32:23;;;;;;;3.97;1.70;;;;;;;;;;5061676;28;20245;-51
2023/03/05 01:34:50;;;;;;;7.07;2.17;;;;;;;;;;5066285;28;20295;-51
2023/03/05 01:37:17;;;;;;;11.67;2.63;;;;;;;;;;5065287;28;20663;-52
2023/03/05 01:39:43;;;;;;;10.70;3.00;;;;;;;;;;5064795;28;20669;-52
2023/03/05 01:42:11;;;;;;;6.60;1.83;;;;;;;;;;5065674;28;20234;-52
2023/03/05 01:44:38;;;;;;;4.17;2.03;;;;;;;;;;5072144;28;20824;-53
2023/03/05 01:47:04;;;;;;;7.23;1.90;;;;;;;;;;5067895;28;20320;-52
2023/03/05 01:49:33;;;;;;;7.00;2.17;;;;;;;;;;5077402;28;20226;-52
2023/03/05 01:52:02;;;;;;;8.77;1.87;;;;;;;;;;5084569;28;20254;-55
2023/03/05 01:54:32;;;;;;;6.47;1.47;;;;;;;;;;5085369;28;20234;-52
2023/03/05 01:57:00;;;;;;;4.30;1.73;;;;;;;;;;5080559;28;20237;-52
2023/03/05 01:59:28;;;;;;;4.83;2.10;;;;;;;;;;5075553;28;20360;-51
2023/03/05 02:01:56;;;;;;;8.20;1.70;;;;;;;;;;5072409;28;20734;-52
2023/03/05 02:04:26;;;;;;;7.63;1.87;;;;;;;;;;5072416;28;20234;-52
2023/03/05 02:06:53;;;;;;;7.07;1.77;;;;;;;;;;5071160;28;20542;-52
2023/03/05 02:09:22;;;;;;;4.90;1.30;;;;;;;;;;5070730;28;20237;-52
2023/03/05 02:11:48;;;;;;;4.23;1.33;;;;;;;;;;5073210;28;20249;-52
2023/03/05 02:14:15;;;;;;;8.80;2.70;;;;;;;;;;5070596;28;20253;-51
2023/03/05 02:16:43;;;;;;;4.67;1.53;;;;;;;;;;5071237;28;20230;-53
2023/03/05 02:19:10;;;;;;;5.40;1.90;;;;;;;;;;5062126;28;20243;-51
2023/03/05 02:21:40;;;;;;;5.13;1.43;;;;;;;;;;5060286;28;20237;-51
2023/03/05 02:24:07;;;;;;;3.97;1.20;;;;;;;;;;5071219;28;20225;-52
2023/03/05 02:26:33;;;;;;;3.80;1.50;;;;;;;;;;5068872;28;20234;-52
2023/03/05 02:29:01;;;;;;;1.57;1.30;;;;;;;;;;5066530;28;20247;-51
2023/03/05 02:31:28;;;;;;;2.40;1.30;;;;;;;;;;5065504;28;20240;-55
2023/03/05 02:33:55;;;;;;;3.40;1.83;;;;;;;;;;5062470;28;20266;-51
2023/03/05 02:36:22;;;;;;;5.23;1.23;;;;;;;;;;5066749;28;20331;-51
2023/03/05 02:38:51;;;;;;;6.77;1.77;;;;;;;;;;5064768;28;20251;-52
2023/03/05 02:41:18;;;;;;;4.53;1.67;;;;;;;;;;5063881;28;20258;-52
2023/03/05 02:43:45;;;;;;;3.43;1.50;;;;;;;;;;5063002;28;20230;-52
2023/03/05 02:46:11;;;;;;;5.13;1.40;;;;;;;;;;5064188;28;20227;-51
2023/03/05 02:48:38;;;;;;;2.23;1.27;;;;;;;;;;5060617;28;20727;-52
2023/03/05 02:51:06;;;;;;;6.97;1.77;;;;;;;;;;5063747;28;20751;-52
2023/03/05 02:53:32;;;;;;;4.60;1.50;;;;;;;;;;5059122;28;20233;-51
2023/03/05 02:56:00;;;;;;;6.63;1.57;;;;;;;;;;5064653;28;20238;-53
2023/03/05 02:58:27;;;;;;;6.77;1.87;;;;;;;;;;5065083;28;20234;-52
2023/03/05 03:00:53;;;;;;;2.53;1.23;;;;;;;;;;5065009;28;20238;-52
2023/03/05 03:03:20;;;;;;;3.70;1.77;;;;;;;;;;5064646;28;20284;-51
2023/03/05 03:05:47;;;;;;;8.07;1.47;;;;;;;;;;5064197;28;20234;-51
2023/03/05 03:08:14;;;;;;;11.50;1.70;;;;;;;;;;5062672;28;20236;-52
2023/03/05 03:10:40;;;;;;;6.73;1.80;;;;;;;;;;5065265;28;20771;-52
2023/03/05 03:13:08;;;;;;;4.17;1.50;;;;;;;;;;5065338;28;20248;-51
2023/03/05 03:15:36;;;;;;;5.97;1.50;;;;;;;;;;5065775;28;20310;-51
2023/03/05 03:18:03;;;;;;;6.10;1.60;;;;;;;;;;5069812;28;20245;-52
2023/03/05 03:20:30;;;;;;;2.07;1.23;;;;;;;;;;5070145;28;20231;-52
2023/03/05 03:22:56;;;;;;;4.93;2.07;;;;;;;;;;5069575;28;20242;-52
2023/03/05 03:25:23;;;;;;;4.33;1.60;;;;;;;;;;5069728;28;20238;-52
2023/03/05 03:27:50;;;;;;;6.47;1.30;;;;;;;;;;5068137;28;20238;-52
2023/03/05 03:30:18;;;;;;;7.10;1.90;;;;;;;;;;5068464;28;20865;-52
2023/03/05 03:32:45;;;;;;;4.90;1.57;;;;;;;;;;5068112;28;20233;-51
2023/03/05 03:35:11;;;;;;;5.27;1.93;;;;;;;;;;5060467;28;20608;-53
2023/03/05 03:37:38;;;;;;;9.47;1.87;;;;;;;;;;5067482;28;20252;-52
2023/03/05 03:40:05;;;;;;;8.20;1.73;;;;;;;;;;5068049;28;20234;-52
2023/03/05 03:42:32;;;;;;;2.20;1.07;;;;;;;;;;5067439;28;20655;-52
2023/03/05 03:44:59;;;;;;;3.57;1.40;;;;;;;;;;5061237;28;20728;-52
2023/03/05 03:47:27;;;;;;;8.80;1.57;;;;;;;;;;5067649;28;20254;-52
2023/03/05 03:49:53;;;;;;;7.73;1.63;;;;;;;;;;5066822;28;20325;-51
2023/03/05 03:52:21;;;;;;;4.20;1.90;;;;;;;;;;5067427;28;20261;-53
2023/03/05 03:54:48;;;;;;;2.90;1.20;;;;;;;;;;5068200;28;20241;-51
2023/03/05 03:57:14;;;;;;;4.97;1.63;;;;;;;;;;5066993;28;20238;-55
2023/03/05 03:59:41;;;;;;;6.43;2.17;;;;;;;;;;5066719;28;20230;-53
2023/03/05 04:02:08;;;;;;;4.33;1.60;;;;;;;;;;5070649;28;20253;-51
2023/03/05 04:04:36;;;;;;;2.63;1.50;;;;;;;;;;5076338;28;20226;-51
2023/03/05 04:07:02;;;;;;;5.50;1.63;;;;;;;;;;5085313;28;20223;-52
2023/03/05 04:09:29;;;;;;;3.73;1.07;;;;;;;;;;5086904;28;20226;-51
2023/03/05 04:11:56;;;;;;;8.33;1.77;;;;;;;;;;5087531;28;20250;-52
2023/03/05 04:14:22;;;;;;;4.27;1.60;;;;;;;;;;5086563;28;20231;-51
2023/03/05 04:16:49;;;;;;;3.97;1.50;;;;;;;;;;5086743;28;20291;-54
2023/03/05 04:19:15;;;;;;;5.40;1.43;;;;;;;;;;5087685;28;20782;-54
2023/03/05 04:21:43;;;;;;;4.30;1.53;;;;;;;;;;5088082;28;20817;-51
2023/03/05 04:24:10;;;;;;;3.17;1.27;;;;;;;;;;5086171;28;20234;-52
2023/03/05 04:26:37;;;;;;;2.17;0.90;;;;;;;;;;5075816;28;20703;-51
2023/03/05 04:29:03;;;;;;;5.33;1.60;;;;;;;;;;5064640;28;20653;-53
2023/03/05 04:31:30;;;;;;;5.80;1.60;;;;;;;;;;5066995;28;20837;-52
2023/03/05 04:33:56;;;;;;;6.93;2.13;;;;;;;;;;5068383;28;20234;-52
2023/03/05 04:36:23;;;;;;;7.27;1.80;;;;;;;;;;5065942;28;20660;-51
2023/03/05 04:38:51;;;;;;;7.40;2.10;;;;;;;;;;5065107;28;20230;-51
2023/03/05 04:41:18;;;;;;;2.97;1.63;;;;;;;;;;5066248;28;20239;-52
2023/03/05 04:43:44;;;;;;;6.10;1.53;;;;;;;;;;5066575;28;20299;-51
2023/03/05 04:46:11;;;;;;;5.57;1.40;;;;;;;;;;5065110;28;20652;-52
2023/03/05 04:48:38;;;;;;;7.30;1.90;;;;;;;;;;5063334;28;20238;-51
2023/03/05 04:51:04;;;;;;;5.60;2.03;;;;;;;;;;5063678;28;20234;-52
2023/03/05 04:53:31;;;;;;;3.90;1.67;;;;;;;;;;5064465;28;20222;-52
2023/03/05 04:56:00;;;;;;;4.40;1.57;;;;;;;;;;5066897;28;20655;-52
2023/03/05 04:58:27;;;;;;;4.13;1.27;;;;;;;;;;5065533;28;20253;-52
2023/03/05 05:00:53;;;;;;;2.80;1.23;;;;;;;;;;5066137;27;20315;-51
2023/03/05 05:03:20;;;;;;;4.43;2.17;;;;;;;;;;5063718;27;20234;-51
2023/03/05 05:05:53;;;;;;;2.87;1.57;;;;;;;;;;5065964;28;20226;-52
2023/03/05 05:08:20;;;;;;;9.50;1.50;;;;;;;;;;5064873;28;20226;-52
2023/03/05 05:10:46;;;;;;;4.97;1.70;;;;;;;;;;5066655;28;20253;-52
2023/03/05 05:13:14;;;;;;;9.07;1.57;;;;;;;;;;5065122;28;20249;-52
2023/03/05 05:15:41;;;;;;;4.83;1.77;;;;;;;;;;5066227;28;20243;-51
2023/03/05 05:18:08;;;;;;;4.00;1.03;;;;;;;;;;5064189;28;20743;-52
2023/03/05 05:20:35;;;;;;;4.40;1.40;;;;;;;;;;5064580;28;20234;-52
2023/03/05 05:23:01;;;;;;;6.93;1.47;;;;;;;;;;5065170;28;20238;-52
2023/03/05 05:25:28;;;;;;;4.30;1.60;;;;;;;;;;5065124;28;20233;-52
2023/03/05 05:27:54;;;;;;;2.37;1.40;;;;;;;;;;5064691;28;20240;-53
2023/03/05 05:30:22;;;;;;;6.83;2.27;;;;;;;;;;5065025;28;20264;-51
2023/03/05 05:32:49;;;;;;;3.53;1.60;;;;;;;;;;5064558;28;20283;-51
2023/03/05 05:35:16;;;;;;;11.23;1.83;;;;;;;;;;5065524;28;20663;-51
2023/03/05 05:37:42;;;;;;;10.67;3.07;;;;;;;;;;5063928;28;20989;-52
2023/03/05 05:40:09;;;;;;;4.13;1.97;;;;;;;;;;5064260;28;20227;-51
2023/03/05 05:42:36;;;;;;;4.63;1.43;;;;;;;;;;5064324;28;20727;-51
2023/03/05 05:45:03;;;;;;;5.80;2.07;;;;;;;;;;5064934;28;20721;-51
2023/03/05 05:47:31;;;;;;;3.93;1.50;;;;;;;;;;5062589;28;20231;-52
2023/03/05 05:49:58;;;;;;;4.57;1.40;;;;;;;;;;5065650;28;20236;-52
2023/03/05 05:52:24;;;;;;;8.60;1.70;;;;;;;;;;5064187;28;20238;-52
2023/03/05 05:54:51;;;;;;;2.97;1.47;;;;;;;;;;5065670;28;20313;-51
2023/03/05 05:57:18;;;;;;;2.77;1.40;;;;;;;;;;5065417;28;20230;-51
2023/03/05 05:59:44;;;;;;;4.83;1.73;;;;;;;;;;5065842;28;20307;-52
2023/03/05 06:02:11;;;;;;;5.47;1.80;;;;;;;;;;5059793;28;20807;-52
2023/03/05 06:04:39;;;;;;;4.97;1.47;;;;;;;;;;5065030;28;20251;-51
2023/03/05 06:07:06;;;;;;;4.83;1.97;;;;;;;;;;5064924;28;20231;-52
2023/03/05 06:09:32;;;;;;;7.80;1.83;;;;;;;;;;5065273;28;20746;-51
2023/03/05 06:11:59;;;;;;;6.03;1.30;;;;;;;;;;5065864;28;20238;-51
2023/03/05 06:14:25;;;;;;;3.67;1.27;;;;;;;;;;5065651;28;20881;-52
2023/03/05 06:16:52;;;;;;;3.87;1.30;;;;;;;;;;5063861;28;20233;-51
2023/03/05 06:19:18;;;;;;;4.50;1.50;;;;;;;;;;5064959;28;20230;-51
2023/03/05 06:21:46;;;;;;;6.67;1.97;;;;;;;;;;5064583;28;20310;-52
2023/03/05 06:24:13;;;;;;;5.60;1.57;;;;;;;;;;5065355;28;20320;-52
2023/03/05 06:26:40;;;;;;;7.60;2.00;;;;;;;;;;5064203;28;20316;-52
2023/03/05 06:29:07;;;;;;;5.53;1.73;;;;;;;;;;5063968;28;20249;-51
2023/03/05 06:31:33;;;;;;;5.93;1.87;;;;;;;;;;5062982;28;20240;-52
2023/03/05 06:34:01;;;;;;;9.50;2.17;;;;;;;;;;5064560;28;20699;-54
2023/03/05 06:36:28;;;;;;;5.27;1.77;;;;;;;;;;5064214;28;20788;-52
2023/03/05 06:38:56;;;;;;;8.17;2.17;;;;;;;;;;5063568;28;20234;-52
2023/03/05 06:41:25;;;;;;;3.97;1.40;;;;;;;;;;5064110;28;20238;-51
2023/03/05 06:43:52;;;;;;;1.77;1.50;;;;;;;;;;5064020;28;20230;-52
2023/03/05 06:46:19;;;;;;;5.70;1.83;;;;;;;;;;5062580;28;20254;-52
2023/03/05 06:48:46;;;;;;;9.33;1.60;;;;;;;;;;5063190;28;20236;-52
2023/03/05 06:51:14;;;;;;;3.80;1.93;;;;;;;;;;5061630;28;20234;-53
2023/03/05 06:53:40;;;;;;;6.63;1.70;;;;;;;;;;5067617;28;20739;-52
2023/03/05 06:56:09;;;;;;;3.47;1.57;;;;;;;;;;5068550;28;20333;-52
2023/03/05 06:58:35;;;;;;;3.00;2.13;;;;;;;;;;5066761;28;20240;-52
2023/03/05 07:01:04;;;;;;;3.90;1.60;;;;;;;;;;5068664;28;20452;-52
2023/03/05 07:03:30;;;;;;;3.63;1.70;;;;;;;;;;5067781;28;20226;-52
2023/03/05 07:05:57;;;;;;;6.27;1.33;;;;;;;;;;5069004;28;20320;-51
2023/03/05 07:08:23;;;;;;;3.10;1.20;;;;;;;;;;5067930;28;20234;-50
2023/03/05 07:10:50;;;;;;;5.67;1.73;;;;;;;;;;5067856;28;20700;-51
2023/03/05 07:13:18;;;;;;;4.17;1.40;;;;;;;;;;5067275;28;20238;-51
2023/03/05 07:15:44;;;;;;;1.50;1.40;;;;;;;;;;5064647;28;20237;-51
2023/03/05 07:18:11;;;;;;;3.50;1.27;;;;;;;;;;5065559;28;20351;-52
2023/03/05 07:20:38;;;;;;;6.57;1.30;;;;;;;;;;5067993;28;20249;-52
2023/03/05 07:23:04;;;;;;;2.53;1.20;;;;;;;;;;5067819;28;20238;-52
2023/03/05 07:25:31;;;;;;;3.80;1.40;;;;;;;;;;5063219;28;20234;-51
2023/03/05 07:27:58;;;;;;;4.77;1.30;;;;;;;;;;5066447;28;20328;-52
2023/03/05 07:30:26;;;;;;;3.43;1.17;;;;;;;;;;5067180;28;20311;-52
2023/03/05 07:32:52;;;;;;;4.83;1.70;;;;;;;;;;5068745;28;20246;-51
2023/03/05 07:35:19;;;;;;;5.33;1.20;;;;;;;;;;5067596;28;20318;-51
2023/03/05 07:37:45;;;;;;;8.70;2.17;;;;;;;;;;5066428;28;20240;-52
2023/03/05 07:40:12;;;;;;;3.13;1.60;;;;;;;;;;5067775;28;20251;-52
2023/03/05 07:42:39;;;;;;;4.10;1.00;;;;;;;;;;5065450;28;20234;-53
2023/03/05 07:45:06;;;;;;;7.70;1.57;;;;;;;;;;5070074;28;20359;-52
2023/03/05 07:47:35;;;;;;;3.87;2.10;;;;;;;;;;5067965;28;20288;-53
2023/03/05 07:50:01;;;;;;;4.43;1.33;;;;;;;;;;5067422;28;20321;-51
2023/03/05 07:52:28;;;;;;;1.20;0.93;;;;;;;;;;5067861;28;20299;-53
2023/03/05 07:54:54;;;;;;;1.60;1.30;;;;;;;;;;5068040;28;20238;-51
2023/03/05 07:57:21;;;;;;;2.37;1.20;;;;;;;;;;5066817;28;20234;-51
2023/03/05 07:59:47;;;;;;;7.07;1.57;;;;;;;;;;5065769;28;20669;-52
2023/03/05 08:02:14;;;;;;;1.23;1.00;;;;;;;;;;5066788;28;20665;-52
2023/03/05 08:04:42;;;;;;;4.87;1.40;;;;;;;;;;5058754;28;20234;-51
2023/03/05 08:07:08;;;;;;;3.53;1.33;;;;;;;;;;5062558;28;20694;-52
2023/03/05 08:09:35;;;;;;;1.47;0.97;;;;;;;;;;5067256;28;20237;-51
2023/03/05 08:12:02;;;;;;;3.10;1.03;;;;;;;;;;5067390;28;20234;-53
2023/03/05 08:14:28;;;;;;;3.33;1.33;;;;;;;;;;5067977;28;20234;-51
2023/03/05 08:16:55;;;;;;;4.33;1.20;;;;;;;;;;5074376;28;20249;-51
2023/03/05 08:19:21;;;;;;;2.57;1.50;;;;;;;;;;5066260;28;20242;-51
2023/03/05 08:21:49;;;;;;;2.40;1.17;;;;;;;;;;5066491;28;20845;-51
2023/03/05 08:24:16;;;;;;;3.80;1.37;;;;;;;;;;5066700;28;20231;-51
2023/03/05 08:26:43;;;;;;;5.50;1.50;;;;;;;;;;5062039;28;20223;-52
2023/03/05 08:29:10;;;;;;;1.30;1.20;;;;;;;;;;5066785;28;20235;-51
2023/03/05 08:31:37;;;;;;;5.93;1.70;;;;;;;;;;5065655;28;20250;-52
2023/03/05 08:34:04;;;;;;;5.90;1.87;;;;;;;;;;5067208;28;20237;-52
2023/03/05 08:36:31;;;;;;;3.33;1.17;;;;;;;;;;5067954;28;20254;-51
2023/03/05 08:39:00;;;;;;;4.67;1.40;;;;;;;;;;5066412;28;20272;-52
2023/03/05 08:41:26;;;;;;;3.83;1.63;;;;;;;;;;5066697;28;20242;-52
2023/03/05 08:43:53;;;;;;;1.80;1.00;;;;;;;;;;5064760;28;20230;-52
2023/03/05 08:46:19;;;;;;;6.53;1.30;;;;;;;;;;5065941;28;20235;-51
2023/03/05 08:48:46;;;;;;;4.40;0.97;;;;;;;;;;5057259;28;20288;-51
2023/03/05 08:51:13;;;;;;;1.30;1.10;;;;;;;;;;5061237;28;20268;-51
2023/03/05 08:53:40;;;;;;;3.80;1.43;;;;;;;;;;5066351;28;20253;-53
2023/03/05 08:56:09;;;;;;;1.97;1.17;;;;;;;;;;5065995;28;20234;-51
2023/03/05 08:58:36;;;;;;;1.83;0.90;;;;;;;;;;5065407;28;20776;-51
2023/03/05 09:01:02;;;;;;;5.43;1.50;;;;;;;;;;5065934;28;21178;-51
2023/03/05 09:03:29;;;;;;;9.47;1.43;;;;;;;;;;5064317;28;20239;-51
2023/03/05 09:05:59;;;;;;;1.20;0.90;;;;;;;;;;5056491;28;20241;-51
2023/03/05 09:08:26;;;;;;;7.93;1.40;;;;;;;;;;5065431;28;20254;-52
2023/03/05 09:10:52;;;;;;;2.37;1.10;;;;;;;;;;5065240;28;20237;-51
2023/03/05 09:13:20;;;;;;;2.40;0.87;;;;;;;;;;5064559;28;20231;-51
2023/03/05 09:15:53;;;;;;;2.60;1.20;;;;;;;;;;5060892;28;20244;-52
2023/03/05 09:18:20;;;;;;;2.93;0.83;;;;;;;;;;5061406;28;20238;-51
2023/03/05 09:20:47;;;;;;;2.73;1.20;;;;;;;;;;5064861;28;20234;-51
2023/03/05 09:23:13;;;;;;;2.70;1.23;;;;;;;;;;5062959;28;20244;-51
2023/03/05 09:25:40;;;;;;;2.07;1.07;;;;;;;;;;5064023;28;20234;-51
2023/03/05 09:28:06;;;;;;;4.20;2.73;;;;;;;;;;5062615;28;20237;-51
2023/03/05 09:30:35;;;;;;;1.63;1.00;;;;;;;;;;5064060;28;20638;-52
2023/03/05 09:33:01;;;;;;;6.43;1.70;;;;;;;;;;5059664;28;20249;-51
2023/03/05 09:35:28;;;;;;;1.97;1.27;;;;;;;;;;5058667;28;20258;-52
2023/03/05 09:37:55;;;;;;;3.40;2.23;;;;;;;;;;5060223;28;20241;-52
2023/03/05 09:40:22;;;;;;;4.37;3.13;;;;;;;;;;5064119;28;20245;-52
2023/03/05 09:42:57;;;;;;;2.17;1.00;;;;;;;;;;5061978;28;20241;-52
2023/03/05 09:45:26;;;;;;;1.40;1.20;;;;;;;;;;5059038;28;20235;-53
2023/03/05 09:47:56;;;;;;;1.80;1.20;;;;;;;;;;5063734;28;20234;-52
2023/03/05 09:50:31;;;;;;;2.83;1.37;;;;;;;;;;5064437;28;20231;-51
2023/03/05 09:53:02;;;;;;;5.23;1.13;;;;;;;;;;5063362;28;20398;-51
2023/03/05 09:55:32;;;;;;;1.53;1.27;;;;;;;;;;5063990;28;20226;-51
2023/03/05 09:58:03;;;;;;;3.43;1.47;;;;;;;;;;5062148;28;20238;-52
2023/03/05 10:00:33;;;;;;;1.33;1.13;;;;;;;;;;5064231;28;20287;-52
2023/03/05 10:03:04;;;;;;;3.10;1.27;;;;;;;;;;5063037;28;20235;-51
2023/03/05 10:05:37;;;;;;;2.17;1.40;;;;;;;;;;5063931;28;20311;-52
2023/03/05 10:08:04;;;;;;;1.33;1.07;;;;;;;;;;5064072;28;20234;-52
2023/03/05 10:10:36;;;;;;;4.33;1.60;;;;;;;;;;5065126;28;20238;-52
2023/03/05 10:13:05;;;;;;;3.53;1.77;;;;;;;;;;5064188;28;20268;-52
2023/03/05 10:15:36;;;;;;;3.20;1.37;;;;;;;;;;5064745;28;20235;-53
2023/03/05 10:18:13;;;;;;;2.43;0.83;;;;;;;;;;5064493;28;20266;-53
2023/03/05 10:20:53;;;;;;;4.23;2.00;;;;;;;;;;5064182;28;20229;-53
2023/03/05 10:23:25;;;;;;;3.63;2.00;;;;;;;;;;5058822;28;20230;-52
2023/03/05 10:25:59;;;;;;;5.27;1.67;;;;;;;;;;5063879;28;20239;-52
2023/03/05 10:28:33;;;;;;;4.57;1.30;;;;;;;;;;5064205;28;20226;-52
2023/03/05 10:31:04;;;;;;;2.30;1.47;;;;;;;;;;5065217;28;20258;-51
2023/03/05 10:33:35;;;;;;;2.83;1.53;;;;;;;;;;5065962;28;20231;-53
2023/03/05 10:36:24;;;;;;;9.10;1.40;;;;;;;;;;5060862;28;20253;-51
2023/03/05 10:39:08;;;;;;;5.37;1.73;;;;;;;;;;5075579;28;20231;-51
2023/03/05 10:41:38;;;;;;;4.67;1.43;;;;;;;;;;5074852;28;20318;-51
2023/03/05 10:44:09;;;;;;;4.40;1.40;;;;;;;;;;5060966;28;20237;-51
2023/03/05 10:46:37;;;;;;;4.20;1.50;;;;;;;;;;5076144;28;20254;-53
2023/03/05 10:49:11;;;;;;;3.97;1.53;;;;;;;;;;5068212;28;20238;-53
2023/03/05 10:51:39;;;;;;;3.03;1.47;;;;;;;;;;5068634;28;20661;-51
2023/03/05 10:54:11;;;;;;;6.27;1.43;;;;;;;;;;5059681;28;20238;-51
2023/03/05 10:56:37;;;;;;;2.23;1.37;;;;;;;;;;5064768;28;20239;-52
2023/03/05 10:59:04;;;;;;;5.67;1.30;;;;;;;;;;5063499;28;20654;-52
2023/03/05 11:01:31;;;;;;;4.27;1.37;;;;;;;;;;5060675;28;20234;-51
2023/03/05 11:03:59;;;;;;;3.27;1.50;;;;;;;;;;5065519;28;20592;-52
2023/03/05 11:06:34;;;;;;;3.30;1.50;;;;;;;;;;5063541;28;20234;-53
2023/03/05 11:09:18;;;;;;;2.47;1.67;;;;;;;;;;5061352;28;20232;-52
2023/03/05 11:11:45;;;;;;;5.80;1.50;;;;;;;;;;5060153;28;20321;-54
2023/03/05 11:14:28;;;;;;;3.97;1.93;;;;;;;;;;5070500;28;20254;-53
2023/03/05 11:16:55;;;;;;;3.57;1.27;;;;;;;;;;5069319;28;20231;-52
2023/03/05 11:19:28;;;;;;;3.63;1.40;;;;;;;;;;5071138;28;20311;-51
2023/03/05 11:22:06;;;;;;;2.13;1.67;;;;;;;;;;5070739;28;20245;-52
2023/03/05 11:24:33;;;;;;;2.67;1.30;;;;;;;;;;5071265;28;20249;-52
2023/03/05 11:27:00;;;;;;;2.30;1.30;;;;;;;;;;5065935;28;20681;-52
2023/03/05 11:29:28;;;;;;;5.33;1.50;;;;;;;;;;5060599;28;20318;-51
2023/03/05 11:31:54;;;;;;;3.13;1.10;;;;;;;;;;5063919;28;20238;-51
2023/03/05 11:34:38;;;;;;;2.93;2.53;;;;;;;;;;5063553;28;20295;-52
2023/03/05 11:37:07;;;;;;;4.80;2.33;;;;;;;;;;5056927;28;20257;-52
2023/03/05 11:39:37;;;;;;;4.90;1.37;;;;;;;;;;5066297;28;20782;-52
2023/03/05 11:42:05;;;;;;;2.03;1.37;;;;;;;;;;5066619;28;20242;-52
2023/03/05 11:44:34;;;;;;;1.33;1.00;;;;;;;;;;5066231;28;20248;-52
2023/03/05 11:47:02;;;;;;;3.37;1.20;;;;;;;;;;5065067;28;20317;-52
2023/03/05 11:49:30;;;;;;;3.17;1.67;;;;;;;;;;5064980;28;20230;-52
2023/03/05 11:52:00;;;;;;;3.57;1.30;;;;;;;;;;5066772;28;20288;-52
2023/03/05 11:54:30;;;;;;;6.77;1.93;;;;;;;;;;5063003;28;20238;-52
2023/03/05 11:56:57;;;;;;;2.67;1.63;;;;;;;;;;5065165;28;20721;-51
2023/03/05 11:59:27;;;;;;;6.27;1.83;;;;;;;;;;5063153;28;20716;-52
2023/03/05 12:01:55;;;;;;;3.90;1.33;;;;;;;;;;5062962;28;20266;-52
2023/03/05 12:04:22;;;;;;;2.40;2.00;;;;;;;;;;5062750;28;20233;-51
2023/03/05 12:06:50;;;;;;;1.40;1.30;;;;;;;;;;5064317;28;20716;-51
2023/03/05 12:09:21;;;;;;;3.00;1.80;;;;;;;;;;5065635;28;20272;-52
2023/03/05 12:11:52;;;;;;;4.47;1.43;;;;;;;;;;5062132;28;20242;-52
2023/03/05 12:14:23;;;;;;;2.87;1.30;;;;;;;;;;5061632;28;20238;-52
2023/03/05 12:16:52;;;;;;;2.53;1.80;;;;;;;;;;5061330;28;20242;-52
2023/03/05 12:19:31;;;;;;;3.33;1.60;;;;;;;;;;5065580;28;20227;-52
2023/03/05 12:21:58;;;;;;;4.27;1.60;;;;;;;;;;5061559;28;20586;-52
2023/03/05 12:24:43;;;;;;;4.10;1.97;;;;;;;;;;5064113;28;20249;-52
2023/03/05 12:27:15;;;;;;;3.47;1.50;;;;;;;;;;5053137;28;20262;-51
2023/03/05 12:29:43;;;;;;;3.63;1.60;;;;;;;;;;5061703;28;20253;-51
2023/03/05 12:32:30;;;;;;;3.53;1.47;;;;;;;;;;5064437;28;20273;-52
2023/03/05 12:34:57;;;;;;;3.43;1.03;;;;;;;;;;5062762;28;20747;-52
2023/03/05 12:37:50;;;;;;;4.00;1.73;;;;;;;;;;5063649;28;20705;-51
2023/03/05 12:40:21;;;;;;;2.77;1.50;;;;;;;;;;5039395;28;20713;-51
2023/03/05 12:42:53;;;;;;;3.63;1.80;;;;;;;;;;5060347;28;20899;-52
2023/03/05 12:45:24;;;;;;;1.20;1.10;;;;;;;;;;5063503;28;20295;-51
2023/03/05 12:48:18;;;;;;;2.30;1.47;;;;;;;;;;5061461;28;20278;-51
2023/03/05 12:50:51;;;;;;;2.90;1.67;;;;;;;;;;5054503;28;20330;-51
2023/03/05 12:53:19;;;;;;;1.83;1.73;;;;;;;;;;5063053;28;20723;-51
2023/03/05 12:55:51;;;;;;;2.60;1.33;;;;;;;;;;5060777;28;20231;-53
2023/03/05 12:58:21;;;;;;;3.17;1.70;;;;;;;;;;5058477;28;20657;-51
2023/03/05 13:00:49;;;;;;;3.10;1.73;;;;;;;;;;5062433;28;20272;-52
2023/03/05 13:03:17;;;;;;;3.23;1.57;;;;;;;;;;5063211;28;20242;-52
2023/03/05 13:05:48;;;;;;;4.10;1.67;;;;;;;;;;5060689;28;20246;-52
2023/03/05 13:08:20;;;;;;;3.43;1.50;;;;;;;;;;5059946;28;20231;-52
2023/03/05 13:10:51;;;;;;;4.13;1.80;;;;;;;;;;5060276;28;20247;-52
2023/03/05 13:13:20;;;;;;;7.03;2.20;;;;;;;;;;5063379;28;20243;-52
2023/03/05 13:15:48;;;;;;;6.33;1.60;;;;;;;;;;5062055;28;20296;-52
2023/03/05 13:18:18;;;;;;;2.90;1.67;;;;;;;;;;5061240;28;20329;-52
2023/03/05 13:20:49;;;;;;;7.13;2.13;;;;;;;;;;5061641;28;20810;-51
2023/03/05 13:23:19;;;;;;;4.30;1.67;;;;;;;;;;5063412;28;20267;-52
2023/03/05 13:25:56;;;;;;;2.33;1.70;;;;;;;;;;5061499;28;20659;-52
2023/03/05 13:28:25;;;;;;;1.70;1.60;;;;;;;;;;5059982;28;20234;-51
2023/03/05 13:30:52;;;;;;;7.47;1.90;;;;;;;;;;5061964;28;20238;-51
2023/03/05 13:33:20;;;;;;;3.33;1.50;;;;;;;;;;5061555;28;20342;-52
2023/03/05 13:35:47;;;;;;;7.30;1.67;;;;;;;;;;5061345;28;20230;-52
2023/03/05 13:38:24;;;;;;;3.33;1.40;;;;;;;;;;5062624;28;20234;-52
2023/03/05 13:41:07;;;;;;;3.10;1.33;;;;;;;;;;5062423;28;20679;-51
2023/03/05 13:43:41;;;;;;;5.23;2.00;;;;;;;;;;5060586;28;20231;-52
2023/03/05 13:46:08;;;;;;;6.23;1.77;;;;;;;;;;5060126;28;20250;-53
2023/03/05 13:48:34;;;;;;;3.23;2.93;;;;;;;;;;5061069;28;20231;-54
2023/03/05 13:51:05;;;;;;;1.83;1.07;;;;;;;;;;5060710;28;20235;-52
2023/03/05 13:53:33;;;;;;;3.67;2.60;;;;;;;;;;5063343;28;20339;-52
2023/03/05 13:56:00;;;;;;;4.33;2.13;;;;;;;;;;5063191;28;20243;-51
2023/03/05 13:58:48;;;;;;;1.43;1.30;;;;;;;;;;5061922;28;20412;-52
2023/03/05 14:01:18;;;;;;;3.00;1.93;;;;;;;;;;5059931;28;20250;-53
2023/03/05 14:03:45;;;;;;;4.70;1.20;;;;;;;;;;5059999;28;20227;-51
2023/03/05 14:06:12;;;;;;;4.17;1.40;;;;;;;;;;5058768;28;20240;-52
2023/03/05 14:08:40;;;;;;;2.67;1.20;;;;;;;;;;5047965;28;20279;-51
2023/03/05 14:11:13;;;;;;;3.43;1.47;;;;;;;;;;5057623;28;20237;-53
2023/03/05 14:13:41;;;;;;;11.00;1.53;;;;;;;;;;5061788;28;20772;-52
2023/03/05 14:16:10;;;;;;;1.50;1.03;;;;;;;;;;5061807;28;20277;-52
2023/03/05 14:18:37;;;;;;;2.43;1.30;;;;;;;;;;5059988;28;20256;-53
2023/03/05 14:21:06;;;;;;;2.80;1.53;;;;;;;;;;5062942;28;20235;-53
2023/03/05 14:23:40;;;;;;;2.03;1.00;;;;;;;;;;5058182;28;20292;-51
2023/03/05 14:26:22;;;;;;;2.07;1.10;;;;;;;;;;5060691;28;20226;-52
2023/03/05 14:28:52;;;;;;;1.40;1.07;;;;;;;;;;5059747;28;20250;-50
2023/03/05 14:31:21;;;;;;;2.83;1.00;;;;;;;;;;5060539;28;20719;-52
2023/03/05 14:33:48;;;;;;;1.57;1.00;;;;;;;;;;5061401;28;20285;-52
2023/03/05 14:36:20;;;;;;;3.17;1.17;;;;;;;;;;5060135;28;20721;-52
2023/03/05 14:38:47;;;;;;;3.17;1.10;;;;;;;;;;5058391;28;20239;-52
2023/03/05 14:41:20;;;;;;;2.03;1.07;;;;;;;;;;5057807;28;20226;-52
2023/03/05 14:43:46;;;;;;;1.53;1.00;;;;;;;;;;5060835;28;20234;-52
2023/03/05 14:46:13;;;;;;;4.70;0.80;;;;;;;;;;5059192;28;20227;-52
2023/03/05 14:48:41;;;;;;;2.30;0.90;;;;;;;;;;5059062;28;20227;-51
2023/03/05 14:51:07;;;;;;;3.00;1.13;;;;;;;;;;5058906;28;20763;-52